sensor_id;sensor_type;location;lat;lon;timestamp;temperature;humidity
29321;DHT22;16323;51.130;6.612;2023-04-24T00:01:46;18.70;87.00
29321;DHT22;16323;51.130;6.612;2023-04-24T00:04:14;18.70;87.30
29321;DHT22;16323;51.130;6.612;2023-04-24T00:06:42;18.70;86.80
29321;DHT22;16323;51.130;6.612;2023-04-24T00:09:09;18.70;86.60
29321;DHT22;16323;51.130;6.612;2023-04-24T00:11:36;18.70;86.10
29321;DHT22;16323;51.130;6.612;2023-04-24T00:14:03;18.70;85.90
29321;DHT22;16323;51.130;6.612;2023-04-24T00:16:30;18.70;85.80
29321;DHT22;16323;51.130;6.612;2023-04-24T00:18:57;18.70;85.60
29321;DHT22;16323;51.130;6.612;2023-04-24T00:21:25;18.70;85.80
29321;DHT22;16323;51.130;6.612;2023-04-24T00:23:52;18.70;85.70
29321;DHT22;16323;51.130;6.612;2023-04-24T00:26:19;18.70;85.60
29321;DHT22;16323;51.130;6.612;2023-04-24T00:28:46;18.70;84.70
29321;DHT22;16323;51.130;6.612;2023-04-24T00:31:13;18.70;85.90
29321;DHT22;16323;51.130;6.612;2023-04-24T00:33:40;18.70;86.20
29321;DHT22;16323;51.130;6.612;2023-04-24T00:36:06;18.70;86.40
29321;DHT22;16323;51.130;6.612;2023-04-24T00:38:35;18.70;86.80
29321;DHT22;16323;51.130;6.612;2023-04-24T00:41:02;18.70;86.40
29321;DHT22;16323;51.130;6.612;2023-04-24T00:43:29;18.70;86.60
29321;DHT22;16323;51.130;6.612;2023-04-24T00:45:55;18.70;86.80
29321;DHT22;16323;51.130;6.612;2023-04-24T00:48:23;18.70;86.30
29321;DHT22;16323;51.130;6.612;2023-04-24T00:50:50;18.70;86.30
29321;DHT22;16323;51.130;6.612;2023-04-24T00:53:17;18.70;86.40
29321;DHT22;16323;51.130;6.612;2023-04-24T00:55:45;18.70;86.10
29321;DHT22;16323;51.130;6.612;2023-04-24T00:58:12;18.70;85.60
29321;DHT22;16323;51.130;6.612;2023-04-24T01:00:39;18.70;85.30
29321;DHT22;16323;51.130;6.612;2023-04-24T01:03:06;18.70;85.20
29321;DHT22;16323;51.130;6.612;2023-04-24T01:05:34;18.70;85.00
29321;DHT22;16323;51.130;6.612;2023-04-24T01:08:01;18.70;84.70
29321;DHT22;16323;51.130;6.612;2023-04-24T01:10:29;18.60;84.50
29321;DHT22;16323;51.130;6.612;2023-04-24T01:12:59;18.70;84.80
29321;DHT22;16323;51.130;6.612;2023-04-24T01:15:26;18.60;84.50
29321;DHT22;16323;51.130;6.612;2023-04-24T01:17:53;18.60;84.10
29321;DHT22;16323;51.130;6.612;2023-04-24T01:20:20;18.60;83.70
29321;DHT22;16323;51.130;6.612;2023-04-24T01:22:48;18.60;84.20
29321;DHT22;16323;51.130;6.612;2023-04-24T01:25:15;18.60;84.50
29321;DHT22;16323;51.130;6.612;2023-04-24T01:27:42;18.60;84.90
29321;DHT22;16323;51.130;6.612;2023-04-24T01:30:10;18.60;85.20
29321;DHT22;16323;51.130;6.612;2023-04-24T01:32:37;18.60;85.40
29321;DHT22;16323;51.130;6.612;2023-04-24T01:35:06;18.60;85.50
29321;DHT22;16323;51.130;6.612;2023-04-24T01:37:33;18.60;85.40
29321;DHT22;16323;51.130;6.612;2023-04-24T01:40:01;18.60;85.50
29321;DHT22;16323;51.130;6.612;2023-04-24T01:42:29;18.60;85.40
29321;DHT22;16323;51.130;6.612;2023-04-24T01:44:56;18.60;85.20
29321;DHT22;16323;51.130;6.612;2023-04-24T01:47:23;18.60;85.50
29321;DHT22;16323;51.130;6.612;2023-04-24T01:49:50;18.60;84.90
29321;DHT22;16323;51.130;6.612;2023-04-24T01:52:18;18.60;85.00
29321;DHT22;16323;51.130;6.612;2023-04-24T01:54:45;18.60;84.50
29321;DHT22;16323;51.130;6.612;2023-04-24T01:57:13;18.60;84.90
29321;DHT22;16323;51.130;6.612;2023-04-24T01:59:40;18.60;84.30
29321;DHT22;16323;51.130;6.612;2023-04-24T02:02:07;18.60;84.20
29321;DHT22;16323;51.130;6.612;2023-04-24T02:04:34;18.60;83.80
29321;DHT22;16323;51.130;6.612;2023-04-24T02:07:01;18.60;83.90
29321;DHT22;16323;51.130;6.612;2023-04-24T02:09:27;18.60;83.70
29321;DHT22;16323;51.130;6.612;2023-04-24T02:11:54;18.60;83.50
29321;DHT22;16323;51.130;6.612;2023-04-24T02:14:23;18.60;84.90
29321;DHT22;16323;51.130;6.612;2023-04-24T02:16:49;18.60;83.90
29321;DHT22;16323;51.130;6.612;2023-04-24T02:19:16;18.60;84.00
29321;DHT22;16323;51.130;6.612;2023-04-24T02:21:43;18.60;84.50
29321;DHT22;16323;51.130;6.612;2023-04-24T02:24:10;18.60;84.50
29321;DHT22;16323;51.130;6.612;2023-04-24T02:26:36;18.60;84.90
29321;DHT22;16323;51.130;6.612;2023-04-24T02:29:03;18.60;84.50
29321;DHT22;16323;51.130;6.612;2023-04-24T02:31:31;18.60;84.60
29321;DHT22;16323;51.130;6.612;2023-04-24T02:33:59;18.60;84.80
29321;DHT22;16323;51.130;6.612;2023-04-24T02:36:26;18.60;85.00
29321;DHT22;16323;51.130;6.612;2023-04-24T02:38:53;18.60;85.00
29321;DHT22;16323;51.130;6.612;2023-04-24T02:41:19;18.60;84.90
29321;DHT22;16323;51.130;6.612;2023-04-24T02:43:46;18.60;84.80
29321;DHT22;16323;51.130;6.612;2023-04-24T02:46:13;18.60;84.50
29321;DHT22;16323;51.130;6.612;2023-04-24T02:48:41;18.60;85.60
29321;DHT22;16323;51.130;6.612;2023-04-24T02:51:08;18.60;84.60
29321;DHT22;16323;51.130;6.612;2023-04-24T02:53:35;18.60;84.40
29321;DHT22;16323;51.130;6.612;2023-04-24T02:56:01;18.60;83.90
29321;DHT22;16323;51.130;6.612;2023-04-24T02:58:28;18.60;84.50
29321;DHT22;16323;51.130;6.612;2023-04-24T03:00:56;18.60;84.30
29321;DHT22;16323;51.130;6.612;2023-04-24T03:03:23;18.60;84.20
29321;DHT22;16323;51.130;6.612;2023-04-24T03:05:52;18.60;83.60
29321;DHT22;16323;51.130;6.612;2023-04-24T03:08:19;18.60;84.00
29321;DHT22;16323;51.130;6.612;2023-04-24T03:10:45;18.60;84.30
29321;DHT22;16323;51.130;6.612;2023-04-24T03:13:12;18.60;84.60
29321;DHT22;16323;51.130;6.612;2023-04-24T03:15:39;18.60;84.50
29321;DHT22;16323;51.130;6.612;2023-04-24T03:18:06;18.60;84.50
29321;DHT22;16323;51.130;6.612;2023-04-24T03:20:32;18.60;84.50
29321;DHT22;16323;51.130;6.612;2023-04-24T03:23:00;18.60;84.60
29321;DHT22;16323;51.130;6.612;2023-04-24T03:25:28;18.60;84.70
29321;DHT22;16323;51.130;6.612;2023-04-24T03:27:55;18.60;84.70
29321;DHT22;16323;51.130;6.612;2023-04-24T03:30:21;18.60;84.90
29321;DHT22;16323;51.130;6.612;2023-04-24T03:32:48;18.60;84.60
29321;DHT22;16323;51.130;6.612;2023-04-24T03:35:15;18.60;84.50
29321;DHT22;16323;51.130;6.612;2023-04-24T03:37:42;18.60;84.40
29321;DHT22;16323;51.130;6.612;2023-04-24T03:40:11;18.60;83.80
29321;DHT22;16323;51.130;6.612;2023-04-24T03:42:37;18.60;83.70
29321;DHT22;16323;51.130;6.612;2023-04-24T03:45:05;18.60;83.60
29321;DHT22;16323;51.130;6.612;2023-04-24T03:47:32;18.60;83.20
29321;DHT22;16323;51.130;6.612;2023-04-24T03:49:59;18.60;82.80
29321;DHT22;16323;51.130;6.612;2023-04-24T03:52:25;18.60;82.70
29321;DHT22;16323;51.130;6.612;2023-04-24T03:54:52;18.60;82.50
29321;DHT22;16323;51.130;6.612;2023-04-24T03:57:20;18.60;82.40
29321;DHT22;16323;51.130;6.612;2023-04-24T03:59:47;18.60;82.40
29321;DHT22;16323;51.130;6.612;2023-04-24T04:02:14;18.60;82.40
29321;DHT22;16323;51.130;6.612;2023-04-24T04:04:41;18.60;82.90
29321;DHT22;16323;51.130;6.612;2023-04-24T04:07:07;18.60;83.30
29321;DHT22;16323;51.130;6.612;2023-04-24T04:09:34;18.60;84.10
29321;DHT22;16323;51.130;6.612;2023-04-24T04:12:01;18.60;84.00
29321;DHT22;16323;51.130;6.612;2023-04-24T04:14:29;18.60;84.10
29321;DHT22;16323;51.130;6.612;2023-04-24T04:16:56;18.60;83.60
29321;DHT22;16323;51.130;6.612;2023-04-24T04:19:23;18.60;83.90
29321;DHT22;16323;51.130;6.612;2023-04-24T04:21:50;18.60;83.60
29321;DHT22;16323;51.130;6.612;2023-04-24T04:24:18;18.60;83.80
29321;DHT22;16323;51.130;6.612;2023-04-24T04:26:46;18.60;83.80
29321;DHT22;16323;51.130;6.612;2023-04-24T04:29:13;18.60;83.60
29321;DHT22;16323;51.130;6.612;2023-04-24T04:31:42;18.60;83.40
29321;DHT22;16323;51.130;6.612;2023-04-24T04:34:08;18.60;83.00
29321;DHT22;16323;51.130;6.612;2023-04-24T04:36:35;18.60;82.60
29321;DHT22;16323;51.130;6.612;2023-04-24T04:39:05;18.60;82.80
29321;DHT22;16323;51.130;6.612;2023-04-24T04:41:32;18.60;82.40
29321;DHT22;16323;51.130;6.612;2023-04-24T04:44:00;18.60;82.20
29321;DHT22;16323;51.130;6.612;2023-04-24T04:46:30;18.60;82.40
29321;DHT22;16323;51.130;6.612;2023-04-24T04:48:59;18.60;82.30
29321;DHT22;16323;51.130;6.612;2023-04-24T04:51:26;18.50;81.80
29321;DHT22;16323;51.130;6.612;2023-04-24T04:53:53;18.50;81.40
29321;DHT22;16323;51.130;6.612;2023-04-24T04:56:20;18.50;81.50
29321;DHT22;16323;51.130;6.612;2023-04-24T04:58:47;18.50;82.10
29321;DHT22;16323;51.130;6.612;2023-04-24T05:01:14;18.50;81.70
29321;DHT22;16323;51.130;6.612;2023-04-24T05:03:41;18.50;82.00
29321;DHT22;16323;51.130;6.612;2023-04-24T05:06:09;18.50;81.30
29321;DHT22;16323;51.130;6.612;2023-04-24T05:08:36;18.50;82.40
29321;DHT22;16323;51.130;6.612;2023-04-24T05:11:03;18.50;82.10
29321;DHT22;16323;51.130;6.612;2023-04-24T05:13:29;18.50;81.80
29321;DHT22;16323;51.130;6.612;2023-04-24T05:15:57;18.50;81.70
29321;DHT22;16323;51.130;6.612;2023-04-24T05:18:24;18.50;81.40
29321;DHT22;16323;51.130;6.612;2023-04-24T05:20:51;18.60;81.20
29321;DHT22;16323;51.130;6.612;2023-04-24T05:23:19;18.50;81.00
29321;DHT22;16323;51.130;6.612;2023-04-24T05:25:46;18.60;80.90
29321;DHT22;16323;51.130;6.612;2023-04-24T05:28:13;18.60;80.90
29321;DHT22;16323;51.130;6.612;2023-04-24T05:30:40;18.50;80.40
29321;DHT22;16323;51.130;6.612;2023-04-24T05:33:07;18.50;80.10
29321;DHT22;16323;51.130;6.612;2023-04-24T05:35:35;18.50;79.30
29321;DHT22;16323;51.130;6.612;2023-04-24T05:38:02;18.50;79.50
29321;DHT22;16323;51.130;6.612;2023-04-24T05:40:30;18.50;80.00
29321;DHT22;16323;51.130;6.612;2023-04-24T05:42:57;18.50;80.80
29321;DHT22;16323;51.130;6.612;2023-04-24T05:45:23;18.50;79.50
29321;DHT22;16323;51.130;6.612;2023-04-24T05:47:50;18.50;80.50
29321;DHT22;16323;51.130;6.612;2023-04-24T05:50:18;18.50;80.90
29321;DHT22;16323;51.130;6.612;2023-04-24T05:52:44;18.50;79.90
29321;DHT22;16323;51.130;6.612;2023-04-24T05:55:11;18.50;81.50
29321;DHT22;16323;51.130;6.612;2023-04-24T05:57:40;18.50;82.20
29321;DHT22;16323;51.130;6.612;2023-04-24T06:00:07;18.50;82.30
29321;DHT22;16323;51.130;6.612;2023-04-24T06:02:37;18.50;82.20
29321;DHT22;16323;51.130;6.612;2023-04-24T06:05:04;18.50;82.20
29321;DHT22;16323;51.130;6.612;2023-04-24T06:07:31;18.50;82.30
29321;DHT22;16323;51.130;6.612;2023-04-24T06:09:58;18.50;82.40
29321;DHT22;16323;51.130;6.612;2023-04-24T06:12:25;18.50;82.30
29321;DHT22;16323;51.130;6.612;2023-04-24T06:14:54;18.60;82.80
29321;DHT22;16323;51.130;6.612;2023-04-24T06:17:21;18.60;82.50
29321;DHT22;16323;51.130;6.612;2023-04-24T06:19:48;18.60;82.30
29321;DHT22;16323;51.130;6.612;2023-04-24T06:22:15;18.50;82.40
29321;DHT22;16323;51.130;6.612;2023-04-24T06:24:41;18.60;82.20
29321;DHT22;16323;51.130;6.612;2023-04-24T06:27:08;18.60;82.40
29321;DHT22;16323;51.130;6.612;2023-04-24T06:29:36;18.60;82.00
29321;DHT22;16323;51.130;6.612;2023-04-24T06:32:04;18.50;82.00
29321;DHT22;16323;51.130;6.612;2023-04-24T06:34:31;18.60;81.90
29321;DHT22;16323;51.130;6.612;2023-04-24T06:36:59;18.50;81.80
29321;DHT22;16323;51.130;6.612;2023-04-24T06:39:26;18.50;82.10
29321;DHT22;16323;51.130;6.612;2023-04-24T06:41:53;18.50;82.20
29321;DHT22;16323;51.130;6.612;2023-04-24T06:44:19;18.50;82.40
29321;DHT22;16323;51.130;6.612;2023-04-24T06:46:46;18.50;82.10
29321;DHT22;16323;51.130;6.612;2023-04-24T06:49:14;18.40;82.30
29321;DHT22;16323;51.130;6.612;2023-04-24T06:51:41;18.50;82.50
29321;DHT22;16323;51.130;6.612;2023-04-24T06:54:08;18.50;82.30
29321;DHT22;16323;51.130;6.612;2023-04-24T06:56:35;18.50;82.60
29321;DHT22;16323;51.130;6.612;2023-04-24T06:59:02;18.50;82.60
29321;DHT22;16323;51.130;6.612;2023-04-24T07:01:28;18.50;82.50
29321;DHT22;16323;51.130;6.612;2023-04-24T07:03:55;18.50;82.40
29321;DHT22;16323;51.130;6.612;2023-04-24T07:06:23;18.50;82.10
29321;DHT22;16323;51.130;6.612;2023-04-24T07:08:51;18.50;82.30
29321;DHT22;16323;51.130;6.612;2023-04-24T07:11:18;18.50;82.20
29321;DHT22;16323;51.130;6.612;2023-04-24T07:13:45;18.50;82.10
29321;DHT22;16323;51.130;6.612;2023-04-24T07:16:12;18.50;81.90
29321;DHT22;16323;51.130;6.612;2023-04-24T07:18:39;18.50;81.50
29321;DHT22;16323;51.130;6.612;2023-04-24T07:21:05;18.50;81.40
29321;DHT22;16323;51.130;6.612;2023-04-24T07:23:34;18.50;81.20
29321;DHT22;16323;51.130;6.612;2023-04-24T07:26:01;18.50;80.70
29321;DHT22;16323;51.130;6.612;2023-04-24T07:28:28;18.50;80.10
29321;DHT22;16323;51.130;6.612;2023-04-24T07:30:56;18.50;79.40
29321;DHT22;16323;51.130;6.612;2023-04-24T07:33:24;18.40;79.00
29321;DHT22;16323;51.130;6.612;2023-04-24T07:35:50;18.40;79.00
29321;DHT22;16323;51.130;6.612;2023-04-24T07:38:18;18.40;78.70
29321;DHT22;16323;51.130;6.612;2023-04-24T07:40:47;18.40;79.40
29321;DHT22;16323;51.130;6.612;2023-04-24T07:43:14;18.40;79.30
29321;DHT22;16323;51.130;6.612;2023-04-24T07:45:41;18.30;78.80
29321;DHT22;16323;51.130;6.612;2023-04-24T07:48:08;18.30;78.40
29321;DHT22;16323;51.130;6.612;2023-04-24T07:50:35;18.30;78.60
29321;DHT22;16323;51.130;6.612;2023-04-24T07:53:02;18.30;78.70
29321;DHT22;16323;51.130;6.612;2023-04-24T07:55:29;18.30;78.80
29321;DHT22;16323;51.130;6.612;2023-04-24T07:57:58;18.40;79.10
29321;DHT22;16323;51.130;6.612;2023-04-24T08:00:24;18.40;78.80
29321;DHT22;16323;51.130;6.612;2023-04-24T08:02:51;18.40;78.90
29321;DHT22;16323;51.130;6.612;2023-04-24T08:05:18;18.40;78.50
29321;DHT22;16323;51.130;6.612;2023-04-24T08:07:45;18.40;78.50
29321;DHT22;16323;51.130;6.612;2023-04-24T08:10:14;18.40;78.40
29321;DHT22;16323;51.130;6.612;2023-04-24T08:12:41;18.40;78.50
29321;DHT22;16323;51.130;6.612;2023-04-24T08:15:10;18.40;78.40
29321;DHT22;16323;51.130;6.612;2023-04-24T08:17:37;18.40;78.50
29321;DHT22;16323;51.130;6.612;2023-04-24T08:20:04;18.40;78.70
29321;DHT22;16323;51.130;6.612;2023-04-24T08:22:35;18.40;78.50
29321;DHT22;16323;51.130;6.612;2023-04-24T08:25:02;18.40;78.40
29321;DHT22;16323;51.130;6.612;2023-04-24T08:27:29;18.40;78.40
29321;DHT22;16323;51.130;6.612;2023-04-24T08:29:57;18.40;78.70
29321;DHT22;16323;51.130;6.612;2023-04-24T08:32:26;18.40;78.70
29321;DHT22;16323;51.130;6.612;2023-04-24T08:34:54;18.40;78.70
29321;DHT22;16323;51.130;6.612;2023-04-24T08:37:21;18.40;78.70
29321;DHT22;16323;51.130;6.612;2023-04-24T08:39:49;18.40;78.80
29321;DHT22;16323;51.130;6.612;2023-04-24T08:42:17;18.40;78.70
29321;DHT22;16323;51.130;6.612;2023-04-24T08:44:44;18.50;79.20
29321;DHT22;16323;51.130;6.612;2023-04-24T08:47:11;18.50;78.40
29321;DHT22;16323;51.130;6.612;2023-04-24T08:49:40;18.50;78.00
29321;DHT22;16323;51.130;6.612;2023-04-24T08:52:07;18.50;77.80
29321;DHT22;16323;51.130;6.612;2023-04-24T08:54:34;18.50;77.30
29321;DHT22;16323;51.130;6.612;2023-04-24T08:57:02;18.50;77.70
29321;DHT22;16323;51.130;6.612;2023-04-24T08:59:30;18.50;77.60
29321;DHT22;16323;51.130;6.612;2023-04-24T09:01:57;18.50;76.90
29321;DHT22;16323;51.130;6.612;2023-04-24T09:04:25;18.50;77.00
29321;DHT22;16323;51.130;6.612;2023-04-24T09:06:56;18.50;76.90
29321;DHT22;16323;51.130;6.612;2023-04-24T09:09:23;18.50;76.90
29321;DHT22;16323;51.130;6.612;2023-04-24T09:11:51;18.50;77.00
29321;DHT22;16323;51.130;6.612;2023-04-24T09:14:21;18.40;76.90
29321;DHT22;16323;51.130;6.612;2023-04-24T09:16:49;18.50;77.90
29321;DHT22;16323;51.130;6.612;2023-04-24T09:19:16;18.50;78.40
29321;DHT22;16323;51.130;6.612;2023-04-24T09:21:45;18.60;78.00
29321;DHT22;16323;51.130;6.612;2023-04-24T09:24:17;18.60;77.00
29321;DHT22;16323;51.130;6.612;2023-04-24T09:26:45;18.60;77.00
29321;DHT22;16323;51.130;6.612;2023-04-24T09:29:14;18.60;77.00
29321;DHT22;16323;51.130;6.612;2023-04-24T09:31:42;18.60;77.00
29321;DHT22;16323;51.130;6.612;2023-04-24T09:34:09;18.60;77.00
29321;DHT22;16323;51.130;6.612;2023-04-24T09:36:37;18.60;78.00
29321;DHT22;16323;51.130;6.612;2023-04-24T09:39:05;18.60;76.80
29321;DHT22;16323;51.130;6.612;2023-04-24T09:41:35;18.60;77.00
29321;DHT22;16323;51.130;6.612;2023-04-24T09:44:11;18.60;76.60
29321;DHT22;16323;51.130;6.612;2023-04-24T09:46:38;18.60;76.60
29321;DHT22;16323;51.130;6.612;2023-04-24T09:49:09;18.60;76.50
29321;DHT22;16323;51.130;6.612;2023-04-24T09:51:37;18.60;76.30
29321;DHT22;16323;51.130;6.612;2023-04-24T09:54:04;18.60;76.30
29321;DHT22;16323;51.130;6.612;2023-04-24T09:56:42;18.60;76.20
29321;DHT22;16323;51.130;6.612;2023-04-24T09:59:09;18.60;76.10
29321;DHT22;16323;51.130;6.612;2023-04-24T10:01:36;18.60;76.20
29321;DHT22;16323;51.130;6.612;2023-04-24T10:04:03;18.60;76.20
29321;DHT22;16323;51.130;6.612;2023-04-24T10:06:33;18.60;76.10
29321;DHT22;16323;51.130;6.612;2023-04-24T10:09:00;18.60;76.20
29321;DHT22;16323;51.130;6.612;2023-04-24T10:11:27;18.60;76.10
29321;DHT22;16323;51.130;6.612;2023-04-24T10:13:56;18.60;76.10
29321;DHT22;16323;51.130;6.612;2023-04-24T10:16:23;18.60;76.00
29321;DHT22;16323;51.130;6.612;2023-04-24T10:18:52;18.70;76.20
29321;DHT22;16323;51.130;6.612;2023-04-24T10:21:19;18.60;76.10
29321;DHT22;16323;51.130;6.612;2023-04-24T10:23:48;18.70;76.00
29321;DHT22;16323;51.130;6.612;2023-04-24T10:26:16;18.70;76.10
29321;DHT22;16323;51.130;6.612;2023-04-24T10:28:45;18.70;76.20
29321;DHT22;16323;51.130;6.612;2023-04-24T10:31:14;18.60;75.90
29321;DHT22;16323;51.130;6.612;2023-04-24T10:33:42;18.60;76.00
29321;DHT22;16323;51.130;6.612;2023-04-24T10:36:10;18.60;76.10
29321;DHT22;16323;51.130;6.612;2023-04-24T10:38:38;18.60;75.90
29321;DHT22;16323;51.130;6.612;2023-04-24T10:41:07;18.60;75.70
29321;DHT22;16323;51.130;6.612;2023-04-24T10:43:35;18.70;75.90
29321;DHT22;16323;51.130;6.612;2023-04-24T10:46:02;18.70;75.90
29321;DHT22;16323;51.130;6.612;2023-04-24T10:48:31;18.60;75.80
29321;DHT22;16323;51.130;6.612;2023-04-24T10:50:58;18.60;75.50
29321;DHT22;16323;51.130;6.612;2023-04-24T10:53:28;18.60;75.70
29321;DHT22;16323;51.130;6.612;2023-04-24T10:55:59;18.70;75.70
29321;DHT22;16323;51.130;6.612;2023-04-24T10:58:36;18.70;75.60
29321;DHT22;16323;51.130;6.612;2023-04-24T11:01:04;18.60;75.70
29321;DHT22;16323;51.130;6.612;2023-04-24T11:03:34;18.60;75.80
29321;DHT22;16323;51.130;6.612;2023-04-24T11:06:02;18.60;75.70
29321;DHT22;16323;51.130;6.612;2023-04-24T11:08:31;18.60;75.90
29321;DHT22;16323;51.130;6.612;2023-04-24T11:11:03;18.60;76.00
29321;DHT22;16323;51.130;6.612;2023-04-24T11:14:01;18.60;76.00
29321;DHT22;16323;51.130;6.612;2023-04-24T11:16:30;18.60;76.00
29321;DHT22;16323;51.130;6.612;2023-04-24T11:19:04;18.60;75.90
29321;DHT22;16323;51.130;6.612;2023-04-24T11:21:36;18.60;76.00
29321;DHT22;16323;51.130;6.612;2023-04-24T11:24:29;18.60;76.00
29321;DHT22;16323;51.130;6.612;2023-04-24T11:26:58;18.60;75.90
29321;DHT22;16323;51.130;6.612;2023-04-24T11:29:51;18.60;76.00
29321;DHT22;16323;51.130;6.612;2023-04-24T11:32:27;18.60;76.10
29321;DHT22;16323;51.130;6.612;2023-04-24T11:34:56;18.60;76.30
29321;DHT22;16323;51.130;6.612;2023-04-24T11:37:26;18.70;77.10
29321;DHT22;16323;51.130;6.612;2023-04-24T11:39:54;18.70;77.10
29321;DHT22;16323;51.130;6.612;2023-04-24T11:42:21;18.70;76.40
29321;DHT22;16323;51.130;6.612;2023-04-24T11:44:49;18.60;77.00
29321;DHT22;16323;51.130;6.612;2023-04-24T11:47:16;18.60;77.00
29321;DHT22;16323;51.130;6.612;2023-04-24T11:49:43;18.60;77.00
29321;DHT22;16323;51.130;6.612;2023-04-24T11:52:15;18.60;77.00
29321;DHT22;16323;51.130;6.612;2023-04-24T11:54:47;18.50;77.00
29321;DHT22;16323;51.130;6.612;2023-04-24T11:57:14;18.60;77.00
29321;DHT22;16323;51.130;6.612;2023-04-24T11:59:41;18.60;77.00
29321;DHT22;16323;51.130;6.612;2023-04-24T12:02:08;18.50;77.10
29321;DHT22;16323;51.130;6.612;2023-04-24T12:04:39;18.50;76.90
29321;DHT22;16323;51.130;6.612;2023-04-24T12:07:07;18.60;78.00
29321;DHT22;16323;51.130;6.612;2023-04-24T12:09:47;18.50;76.90
29321;DHT22;16323;51.130;6.612;2023-04-24T12:12:16;18.60;77.00
29321;DHT22;16323;51.130;6.612;2023-04-24T12:14:44;18.60;77.00
29321;DHT22;16323;51.130;6.612;2023-04-24T12:17:11;18.50;77.00
29321;DHT22;16323;51.130;6.612;2023-04-24T12:19:44;18.50;76.90
29321;DHT22;16323;51.130;6.612;2023-04-24T12:22:11;18.50;77.00
29321;DHT22;16323;51.130;6.612;2023-04-24T12:24:57;18.50;76.90
29321;DHT22;16323;51.130;6.612;2023-04-24T12:27:25;18.50;76.90
29321;DHT22;16323;51.130;6.612;2023-04-24T12:29:52;18.50;76.90
29321;DHT22;16323;51.130;6.612;2023-04-24T12:32:20;18.50;76.50
29321;DHT22;16323;51.130;6.612;2023-04-24T12:34:46;18.50;76.60
29321;DHT22;16323;51.130;6.612;2023-04-24T12:37:13;18.50;76.50
29321;DHT22;16323;51.130;6.612;2023-04-24T12:39:46;18.50;76.20
29321;DHT22;16323;51.130;6.612;2023-04-24T12:42:27;18.50;76.10
29321;DHT22;16323;51.130;6.612;2023-04-24T12:44:57;18.50;77.00
29321;DHT22;16323;51.130;6.612;2023-04-24T12:47:26;18.50;77.00
29321;DHT22;16323;51.130;6.612;2023-04-24T12:49:53;18.50;76.90
29321;DHT22;16323;51.130;6.612;2023-04-24T12:52:21;18.50;76.90
29321;DHT22;16323;51.130;6.612;2023-04-24T12:54:47;18.50;76.90
29321;DHT22;16323;51.130;6.612;2023-04-24T12:57:14;18.50;76.90
29321;DHT22;16323;51.130;6.612;2023-04-24T12:59:42;18.50;77.00
29321;DHT22;16323;51.130;6.612;2023-04-24T13:02:10;18.50;76.90
29321;DHT22;16323;51.130;6.612;2023-04-24T13:04:37;18.50;77.00
29321;DHT22;16323;51.130;6.612;2023-04-24T13:07:04;18.50;76.90
29321;DHT22;16323;51.130;6.612;2023-04-24T13:09:31;18.50;76.30
29321;DHT22;16323;51.130;6.612;2023-04-24T13:11:58;18.50;76.20
29321;DHT22;16323;51.130;6.612;2023-04-24T13:14:26;18.50;76.10
29321;DHT22;16323;51.130;6.612;2023-04-24T13:16:54;18.50;75.60
29321;DHT22;16323;51.130;6.612;2023-04-24T13:19:21;18.50;75.40
29321;DHT22;16323;51.130;6.612;2023-04-24T13:21:47;18.40;75.30
29321;DHT22;16323;51.130;6.612;2023-04-24T13:24:14;18.50;75.80
29321;DHT22;16323;51.130;6.612;2023-04-24T13:26:41;18.50;75.80
29321;DHT22;16323;51.130;6.612;2023-04-24T13:29:08;18.50;75.80
29321;DHT22;16323;51.130;6.612;2023-04-24T13:31:35;18.50;75.60
29321;DHT22;16323;51.130;6.612;2023-04-24T13:34:03;18.50;75.80
29321;DHT22;16323;51.130;6.612;2023-04-24T13:36:30;18.50;75.90
29321;DHT22;16323;51.130;6.612;2023-04-24T13:38:57;18.50;75.90
29321;DHT22;16323;51.130;6.612;2023-04-24T13:41:24;18.50;76.00
29321;DHT22;16323;51.130;6.612;2023-04-24T13:43:50;18.50;75.90
29321;DHT22;16323;51.130;6.612;2023-04-24T13:46:17;18.60;76.00
29321;DHT22;16323;51.130;6.612;2023-04-24T13:48:44;18.60;75.70
29321;DHT22;16323;51.130;6.612;2023-04-24T13:51:12;18.60;75.90
29321;DHT22;16323;51.130;6.612;2023-04-24T13:53:39;18.60;74.90
29321;DHT22;16323;51.130;6.612;2023-04-24T13:56:06;18.60;74.60
29321;DHT22;16323;51.130;6.612;2023-04-24T13:58:35;18.60;74.90
29321;DHT22;16323;51.130;6.612;2023-04-24T14:01:03;18.60;74.10
29321;DHT22;16323;51.130;6.612;2023-04-24T14:03:30;18.60;74.40
29321;DHT22;16323;51.130;6.612;2023-04-24T14:05:57;18.60;74.30
29321;DHT22;16323;51.130;6.612;2023-04-24T14:08:25;18.60;74.20
29321;DHT22;16323;51.130;6.612;2023-04-24T14:10:52;18.60;74.10
29321;DHT22;16323;51.130;6.612;2023-04-24T14:13:19;18.60;74.00
29321;DHT22;16323;51.130;6.612;2023-04-24T14:15:46;18.50;74.10
29321;DHT22;16323;51.130;6.612;2023-04-24T14:18:13;18.60;74.00
29321;DHT22;16323;51.130;6.612;2023-04-24T14:20:40;18.50;74.40
29321;DHT22;16323;51.130;6.612;2023-04-24T14:23:06;18.50;74.40
29321;DHT22;16323;51.130;6.612;2023-04-24T14:25:35;18.50;74.60
29321;DHT22;16323;51.130;6.612;2023-04-24T14:28:02;18.50;74.40
29321;DHT22;16323;51.130;6.612;2023-04-24T14:30:28;18.50;74.30
29321;DHT22;16323;51.130;6.612;2023-04-24T14:32:56;18.60;74.40
29321;DHT22;16323;51.130;6.612;2023-04-24T14:35:22;18.60;74.10
29321;DHT22;16323;51.130;6.612;2023-04-24T14:37:49;18.60;74.50
29321;DHT22;16323;51.130;6.612;2023-04-24T14:40:16;18.60;74.30
29321;DHT22;16323;51.130;6.612;2023-04-24T14:42:44;18.60;74.30
29321;DHT22;16323;51.130;6.612;2023-04-24T14:45:11;18.60;74.30
29321;DHT22;16323;51.130;6.612;2023-04-24T14:47:38;18.60;74.00
29321;DHT22;16323;51.130;6.612;2023-04-24T14:50:06;18.50;73.90
29321;DHT22;16323;51.130;6.612;2023-04-24T14:52:33;18.50;73.40
29321;DHT22;16323;51.130;6.612;2023-04-24T14:55:01;18.50;73.80
29321;DHT22;16323;51.130;6.612;2023-04-24T14:57:28;18.50;73.50
29321;DHT22;16323;51.130;6.612;2023-04-24T14:59:56;18.50;73.30
29321;DHT22;16323;51.130;6.612;2023-04-24T15:02:22;18.50;73.10
29321;DHT22;16323;51.130;6.612;2023-04-24T15:04:49;18.50;73.30
29321;DHT22;16323;51.130;6.612;2023-04-24T15:07:16;18.50;73.30
29321;DHT22;16323;51.130;6.612;2023-04-24T15:09:43;18.50;73.40
29321;DHT22;16323;51.130;6.612;2023-04-24T15:12:10;18.50;73.30
29321;DHT22;16323;51.130;6.612;2023-04-24T15:14:37;18.50;73.80
29321;DHT22;16323;51.130;6.612;2023-04-24T15:17:06;18.50;73.70
29321;DHT22;16323;51.130;6.612;2023-04-24T15:19:32;18.50;73.80
29321;DHT22;16323;51.130;6.612;2023-04-24T15:21:59;18.60;73.80
29321;DHT22;16323;51.130;6.612;2023-04-24T15:24:26;18.60;73.50
29321;DHT22;16323;51.130;6.612;2023-04-24T15:26:53;18.50;73.50
29321;DHT22;16323;51.130;6.612;2023-04-24T15:29:20;18.60;73.50
29321;DHT22;16323;51.130;6.612;2023-04-24T15:31:47;18.50;73.50
29321;DHT22;16323;51.130;6.612;2023-04-24T15:34:15;18.60;73.40